• Join FlightAware (Why Join?)
  • Login
  • US Flag 
07:36PM EDT


 

Airport Tracker/Info


-or-


 

Live Flight TrackerFlight Track Log ✈ UAL118 ✈ 22-Apr-2013 ✈ EDDF / FRA - KEWR

Flight Track Log - Related Links

Times and Time Zones

All times are in EDT time to prevent confusion due to time zone crossing. See the UAL118 flight status page for this flight to view local times or setup timezone preferences in your user account.

Time Position Orientation Groundspeed Altitude Reporting Facility
EDT Latitude Longitude Course Direction KTS MPH feet Rate Location/Type
02:51AM 50.0300 8.5120 250° West 182 209 1,700  Level FlightAware
02:51AM 50.0250 8.4940 247° West 186 214 2,300 2,160 Climbing FlightAware
02:51AM 50.0140 8.4820 215° Southwest 189 217 2,800 2,160 Climbing FlightAware
02:52AM 50.0060 8.4790 194° South 191 220 3,200 1,920 Climbing FlightAware
02:52AM 49.9940 8.4780 183° South 193 222 3,600 1,320 Climbing FlightAware
02:52AM 49.9660 8.4670 194° South 231 266 4,200 1,320 Climbing FlightAware
02:53AM 49.9480 8.4570 200° South 244 281 4,600 1,800 Climbing FlightAware
02:53AM 49.9230 8.4330 212° Southwest 266 306 5,400 2,460 Climbing FlightAware
02:54AM 49.8850 8.3750 225° Southwest 270 311 7,500 2,700 Climbing FlightAware
02:54AM 49.8630 8.3420 224° Southwest 272 313 8,600 2,640 Climbing FlightAware
02:55AM 49.8280 8.2700 233° Southwest 282 325 10,600 1,920 Climbing FlightAware
02:56AM 49.8220 8.1830 264° West 326 375 11,400 1,740 Climbing FlightAware
02:56AM 49.8150 8.0750 264° West 342 394 13,100 2,220 Climbing FlightAware
02:57AM 49.8090 7.9780 265° West 350 403 14,600 2,280 Climbing FlightAware
02:58AM 49.8020 7.8750 264° West 360 414 16,200 2,220 Climbing FlightAware
02:58AM 49.7950 7.7610 265° West 368 423 17,800 2,040 Climbing FlightAware
02:59AM 49.7870 7.6530 263° West 376 433 19,100 1,440 Climbing FlightAware
03:00AM 49.7800 7.5400 265° West 380 437 19,800 1,920 Climbing FlightAware
03:00AM 49.7720 7.4320 263° West 386 444 21,800 2,280 Climbing FlightAware
03:01AM 49.7630 7.3050 264° West 393 452 23,100 1,620 Climbing FlightAware
03:02AM 49.7550 7.1780 264° West 401 461 24,300 1,500 Climbing FlightAware
03:03AM 49.7460 7.0640 263° West 408 470 25,300 1,380 Climbing FlightAware
03:03AM 49.7380 6.9470 264° West 416 479 26,200 1,440 Climbing FlightAware
03:04AM 49.7280 6.8130 263° West 420 483 27,400 1,380 Climbing FlightAware
03:05AM 49.7190 6.6940 263° West 426 490 28,200 1,200 Climbing FlightAware
03:05AM 49.7090 6.5700 263° West 432 497 29,000 1,200 Climbing FlightAware
03:06AM 49.6990 6.4320 264° West 438 504 29,900 1,200 Climbing FlightAware
03:07AM 49.6900 6.3230 263° West 440 506 30,600 1,020 Climbing FlightAware
03:07AM 49.6790 6.1820 263° West 446 513 31,300 1,080 Climbing FlightAware
03:08AM 49.6670 6.0400 263° West 444 511 32,300 1,080 Climbing FlightAware
03:09AM 49.6570 5.9140 263° West 448 516 32,900 1,020 Climbing FlightAware
03:10AM 49.6450 5.7730 263° West 446 513 33,800 1,080 Climbing FlightAware
03:10AM 49.6360 5.6620 263° West 444 511 34,400 900 Climbing FlightAware
03:11AM 49.6240 5.5200 263° West 445 512 35,000 360 Climbing FlightAware
03:12AM 49.6110 5.3750 262° West 449 517 35,000  Level FlightAware
03:12AM 49.5990 5.2450 262° West 453 521 35,000  Level FlightAware
03:13AM 49.5790 5.1090 257° West 462 532 35,000  Level FlightAware
03:14AM 49.5560 4.9770 255° West 460 529 35,000 -180 Level FlightAware
03:15AM 49.5300 4.8330 255° West 459 528 34,800 -720 Descending FlightAware
03:15AM 49.5100 4.7220 255° West 459 528 34,000 -600 Descending FlightAware
03:16AM 49.4840 4.5810 254° West 453 521 34,000  Level FlightAware
03:17AM 49.4610 4.4490 255° West 457 526 34,000  Level FlightAware
03:17AM 49.4350 4.3080 254° West 463 533 34,000  Level FlightAware
03:18AM 49.4090 4.1690 254° West 467 537 34,000 -1,380 Level FlightAware
03:18AM 49.3931 4.1149 254° West 1 1 32,500  Descending FlightAware UK
03:19AM 49.3850 4.0420 254° West 470 541 34,000 1,380 Climbing FlightAware
03:19AM 49.3570 3.8920 254° West 472 543 34,000 480 Level FlightAware
03:20AM 49.3330 3.7660 254° West 466 536 34,700 720 Climbing FlightAware
03:21AM 49.3090 3.6400 254° West 473 544 35,000 -1,140 Climbing FlightAware
03:21AM 49.2886 3.5685 254° West 1 1 33,500  Descending FlightAware UK
03:22AM 49.2820 3.4990 254° West 475 547 35,000  Climbing FlightAware
03:22AM 49.2659 3.4513 254° West 1 1 33,500  Descending FlightAware UK
03:22AM 49.2600 3.3880 254° West 475 547 35,000  Climbing FlightAware
03:22AM 49.2392 3.3148 254° West 1 1 33,500 -2,280 Descending FlightAware UK
03:23AM 49.2279 3.2573 253° West 1 1 33,500 3,180 Level FlightAware UK
03:23AM 49.2290 3.2270 253° West 473 544 35,000  Climbing FlightAware
03:23AM 49.2014 3.1219 253° West 1 1 33,500  Descending FlightAware UK
03:24AM 49.2050 3.1030 253° West 470 541 35,000  Climbing FlightAware
03:24AM 49.1871 3.0455 253° West 1 1 33,500 -2,700 Descending FlightAware UK
03:24AM 49.1805 2.9886 260° West 1 1 33,500 4,680 Level FlightAware UK
03:24AM 49.1880 2.9830 260° West 453 521 35,000  Climbing FlightAware
03:24AM 49.1778 2.9318 260° West 1 1 33,500  Descending FlightAware UK
03:25AM 49.1825 2.8935 260° West 443 510 35,000  Climbing FlightAware ADS-B
03:25AM 49.1755 2.8421 260° West 1 1 33,500  Descending FlightAware UK
03:25AM 49.1820 2.7989 260° West 431 496 35,000  Climbing FlightAware ADS-B
03:25AM 49.1781 2.7513 260° West 1 1 33,500  Descending FlightAware UK
03:26AM 49.1850 2.7100 260° West 432 497 35,000 5,280 Climbing FlightAware
03:26AM 49.1851 2.6890 270° West 432 497 35,000 -2,580 Level FlightAware ADS-B
03:26AM 49.1818 2.6018 270° West 1 1 33,500  Descending FlightAware UK
03:26AM 49.1870 2.5890 270° West 432 497 35,000  Climbing FlightAware
03:27AM 49.1840 2.5117 270° West 1 1 33,500  Descending FlightAware UK
03:27AM 49.1910 2.4490 270° West 430 495 35,000  Climbing FlightAware
03:27AM 49.1872 2.4034 270° West 1 1 33,500 -2,700 Descending FlightAware UK
03:28AM 49.1889 2.3488 273° West 1 1 33,500 3,720 Level FlightAware UK
03:28AM 49.1950 2.3370 273° West 430 495 35,000  Climbing FlightAware
03:28AM 49.1911 2.2773 273° West 448 516 33,500  Descending FlightAware UK
03:29AM 49.1990 2.1970 273° West 431 496 35,000  Climbing FlightAware
03:29AM 49.1952 2.1307 273° West 450 518 33,500  Descending FlightAware UK
03:29AM 49.2020 2.0730 273° West 431 496 35,000  Climbing FlightAware
03:29AM 49.1978 2.0217 273° West 452 520 33,500  Descending FlightAware UK
03:30AM 49.2047 1.9518 273° West 431 496 35,000  Climbing FlightAware ADS-B
03:30AM 49.2003 1.9113 273° West 452 520 33,500 -2,760 Descending FlightAware UK
03:30AM 49.2015 1.8570 272° West 452 520 33,500 2,700 Level FlightAware UK
03:31AM 49.2080 1.8150 272° West 432 497 35,000  Climbing FlightAware
03:31AM 49.2036 1.7653 272° West 454 522 33,500  Descending FlightAware UK
03:31AM 49.2110 1.6900 272° West 433 498 35,000  Climbing FlightAware
03:32AM 49.2065 1.6180 272° West 454 522 33,500  Descending FlightAware UK
03:32AM 49.2130 1.5630 272° West 432 497 35,000  Climbing FlightAware
03:32AM 49.2092 1.4714 272° West 454 522 33,500  Descending FlightAware UK
03:33AM 49.2160 1.4420 272° West 433 498 35,000  Climbing FlightAware
03:33AM 49.2110 1.3789 272° West 454 522 33,500  Descending FlightAware UK
03:33AM 49.2180 1.3160 272° West 433 498 35,000  Climbing FlightAware
03:34AM 49.2130 1.2511 272° West 456 525 33,500  Descending FlightAware UK
03:34AM 49.2210 1.1710 272° West 432 497 35,000  Climbing FlightAware
03:34AM 49.2148 1.1229 272° West 456 525 33,500 -2,760 Descending FlightAware UK
03:35AM 49.2157 1.0677 271° West 456 525 33,500 3,600 Level FlightAware UK
03:35AM 49.2230 1.0490 271° West 432 497 35,000  Climbing FlightAware
03:35AM 49.2168 0.9943 271° West 454 522 33,500 -2,580 Descending FlightAware UK
03:35AM 49.2176 0.9393 271° West 454 522 33,500 3,180 Level FlightAware UK
03:36AM 49.2250 0.9160 271° West 431 496 35,000  Climbing FlightAware
03:36AM 49.2188 0.8484 271° West 454 522 33,500 -2,400 Descending FlightAware UK
03:36AM 49.2196 0.7935 271° West 454 522 33,500 4,500 Level FlightAware UK
03:36AM 49.2270 0.7940 271° West 431 496 35,000  Climbing FlightAware
03:36AM 49.2202 0.7385 271° West 454 522 33,500 -2,700 Descending FlightAware UK
03:37AM 49.2208 0.6835 271° West 452 520 33,500 3,060 Level FlightAware UK
03:37AM 49.2290 0.6520 271° West 432 497 35,000  Climbing FlightAware
03:37AM 49.2221 0.5734 271° West 452 520 33,500  Descending FlightAware UK
03:38AM 49.2300 0.5300 271° West 432 497 35,000  Climbing FlightAware
03:38AM 49.2231 0.4816 271° West 454 522 33,500 -2,760 Descending FlightAware UK
03:38AM 49.2238 0.4265 271° West 456 525 33,500 3,600 Level FlightAware UK
03:38AM 49.2310 0.4150 271° West 432 497 35,000  Climbing FlightAware
03:39AM 49.2245 0.3536 271° West 456 525 33,500  Descending FlightAware UK
03:39AM 49.2330 0.2770 271° West 432 497 35,000  Climbing FlightAware
03:39AM 49.2258 0.1883 271° West 458 527 33,500  Descending FlightAware UK
03:40AM 49.2340 0.1530 271° West 431 496 35,000  Climbing FlightAware
03:40AM 49.2265 0.0789 271° West 458 527 33,500 -2,340 Descending FlightAware UK
03:40AM 49.2268 0.0240 271° West 460 529 33,500 4,680 Level FlightAware UK
03:40AM 49.2350 0.0400 271° West 431 496 35,000  Climbing FlightAware
03:41AM 49.2271 -0.0303 271° West 460 529 33,500  Descending FlightAware UK
03:41AM 49.2360 -0.1050 271° West 430 495 35,000  Climbing FlightAware
03:41AM 49.2279 -0.1765 271° West 460 529 33,500  Descending FlightAware UK
03:42AM 49.2360 -0.1980 271° West 430 495 35,000  Climbing FlightAware
03:42AM 49.2283 -0.2314 271° West 458 527 33,500 -4,500 Descending FlightAware UK
03:42AM 49.2285 -0.2679 271° West 458 527 33,500  Level FlightAware UK
03:42AM 49.2286 -0.3221 270° West 458 527 33,500 3,000 Level FlightAware UK
03:42AM 49.2370 -0.3500 270° West 430 495 35,000  Climbing FlightAware
03:43AM 49.2288 -0.4134 270° West 456 525 33,500  Descending FlightAware UK
03:43AM 49.2370 -0.4520 270° West 430 495 35,000  Climbing FlightAware
03:44AM 49.2291 -0.5594 270° West 456 525 33,500  Descending FlightAware UK
03:44AM 49.2380 -0.6230 270° West 429 494 35,000  Climbing FlightAware
03:44AM 49.2292 -0.6866 270° West 456 525 33,500  Descending FlightAware UK
03:45AM 49.2380 -0.7230 270° West 429 494 35,000  Climbing FlightAware
03:45AM 49.2293 -0.8325 270° West 454 522 33,500  Descending FlightAware UK
03:45AM 49.2380 -0.8620 270° West 428 493 35,000  Climbing FlightAware
03:46AM 49.2290 -0.9591 270° West 454 522 33,500  Descending FlightAware UK
03:46AM 49.2380 -0.9910 270° West 427 491 35,000  Climbing FlightAware
03:46AM 49.2288 -1.0861 270° West 454 522 33,500  Descending FlightAware UK
03:47AM 49.2380 -1.1100 270° West 427 491 35,000  Climbing FlightAware
03:47AM 49.2284 -1.1950 270° West 452 520 33,500  Descending FlightAware UK
03:47AM 49.2370 -1.2290 270° West 427 491 35,000  Climbing FlightAware
03:48AM 49.2281 -1.3037 270° West 452 520 33,500  Descending FlightAware UK
03:48AM 49.2370 -1.3400 270° West 427 491 35,000  Climbing FlightAware
03:49AM 49.2274 -1.4660 270° West 452 520 33,500  Descending FlightAware UK
03:49AM 49.2360 -1.4920 270° West 427 491 35,000  Climbing FlightAware
03:49AM 49.2265 -1.5738 270° West 450 518 33,500 -2,340 Descending FlightAware UK
03:49AM 49.2262 -1.6288 269° West 450 518 33,500 3,720 Level FlightAware UK
03:50AM 49.2350 -1.6300 269° West 427 491 35,000  Climbing FlightAware
03:50AM 49.2256 -1.7000 269° West 450 518 33,500  Descending FlightAware UK
03:50AM 49.2340 -1.7280 269° West 428 493 35,000  Climbing FlightAware
03:50AM 49.2251 -1.7549 269° West 450 518 33,500 -3,600 Descending FlightAware UK
03:51AM 49.2245 -1.8274 269° West 450 518 33,500 1,800 Level FlightAware UK
03:51AM 49.2330 -1.8820 269° West 429 494 35,000  Climbing FlightAware
03:51AM 49.2231 -1.9723 269° West 450 518 33,500 -2,220 Descending FlightAware UK
03:52AM 49.2225 -2.0270 269° West 450 518 33,500 4,080 Level FlightAware UK
03:52AM 49.2320 -2.0230 269° West 430 495 35,000  Climbing FlightAware
03:52AM 49.2211 -2.0998 269° West 452 520 33,500  Descending FlightAware UK
03:52AM 49.2300 -2.1450 269° West 430 495 35,000  Climbing FlightAware
03:53AM 49.2199 -2.2100 269° West 452 520 33,500 -2,700 Descending FlightAware UK
03:53AM 49.2196 -2.2654 270° West 450 518 33,500  Level FlightAware UK
03:53AM 49.2191 -2.3204 269° West 452 520 33,500  Level FlightAware UK
03:54AM 49.2180 -2.3753 268° West 452 520 33,500 3,180 Level FlightAware UK
03:54AM 49.2270 -2.3790 268° West 432 497 35,000  Climbing FlightAware
03:54AM 49.2167 -2.4662 268° West 450 518 33,500 -2,460 Descending FlightAware UK
03:54AM 49.2159 -2.5210 269° West 452 520 33,500 3,420 Level FlightAware UK
03:54AM 49.2250 -2.5110 269° West 433 498 35,000  Climbing FlightAware
03:55AM 49.2146 -2.5942 269° West 452 520 33,500 -2,700 Descending FlightAware UK
03:55AM 49.2133 -2.6492 268° West 452 520 33,500 3,720 Level FlightAware UK
03:55AM 49.2240 -2.6380 268° West 434 499 35,000  Climbing FlightAware
03:56AM 49.2118 -2.7404 268° West 452 520 33,500  Descending FlightAware UK
03:56AM 49.2220 -2.7580 268° West 434 499 35,000  Climbing FlightAware
03:56AM 49.2094 -2.8877 268° West 454 522 33,500  Descending FlightAware UK
03:57AM 49.2190 -2.8970 268° West 435 501 35,000  Climbing FlightAware
03:57AM 49.2067 -3.0346 268° West 452 520 33,500  Descending FlightAware UK
03:57AM 49.2170 -3.0200 268° West 436 502 35,000  Climbing FlightAware
03:58AM 49.2052 -3.1084 268° West 454 522 33,500 -2,460 Descending FlightAware UK
03:58AM 49.2040 -3.1636 268° West 454 522 33,500 3,420 Level FlightAware UK
03:58AM 49.2140 -3.1590 268° West 437 503 35,000  Climbing FlightAware
03:58AM 49.2015 -3.2744 268° West 454 522 33,500  Descending FlightAware UK
03:59AM 49.2110 -3.2830 268° West 437 503 35,000  Climbing FlightAware
03:59AM 49.1992 -3.3853 268° West 456 525 33,500  Descending FlightAware UK
03:59AM 49.2090 -3.4060 268° West 437 503 35,000  Climbing FlightAware
04:00AM 49.1964 -3.4953 268° West 458 527 33,500 -2,400 Descending FlightAware UK
04:00AM 49.1951 -3.5506 268° West 458 527 33,500 3,600 Level FlightAware UK
04:00AM 49.2060 -3.5440 268° West 435 501 35,000  Climbing FlightAware
04:00AM 49.1933 -3.6242 268° West 458 527 33,500 -2,580 Descending FlightAware UK
04:01AM 49.1919 -3.6793 268° West 456 525 33,500 3,900 Level FlightAware UK
04:01AM 49.2030 -3.6640 268° West 435 501 35,000  Climbing FlightAware
04:01AM 49.1900 -3.7525 268° West 456 525 33,500 -2,460 Descending FlightAware UK
04:01AM 49.1885 -3.8075 268° West 456 525 33,500 3,420 Level FlightAware UK
04:01AM 49.1990 -3.8000 268° West 434 499 35,000  Climbing FlightAware
04:02AM 49.1868 -3.8802 268° West 454 522 33,500 -2,700 Descending FlightAware UK
04:02AM 49.1853 -3.9350 268° West 452 520 33,500 3,720 Level FlightAware UK
04:02AM 49.1960 -3.9260 268° West 434 499 35,000  Climbing FlightAware
04:02AM 49.1832 -4.0082 268° West 452 520 33,500 -2,520 Descending FlightAware UK
04:03AM 49.1815 -4.0630 267° West 452 520 33,500 4,080 Level FlightAware UK
04:03AM 49.1920 -4.0480 267° West 434 499 35,000  Climbing FlightAware
04:03AM 49.1793 -4.1362 267° West 452 520 33,500 -2,400 Descending FlightAware UK
04:03AM 49.1776 -4.1911 267° West 454 522 33,500 4,500 Level FlightAware UK
04:03AM 49.1890 -4.1710 267° West 434 499 35,000  Climbing FlightAware
04:04AM 49.1743 -4.3003 267° West 454 522 33,500  Descending FlightAware UK
04:04AM 49.1850 -4.3050 267° West 435 501 35,000  Climbing FlightAware
04:05AM 49.1711 -4.4103 267° West 454 522 33,500  Descending FlightAware UK
04:05AM 49.1800 -4.4470 267° West 437 503 35,000  Climbing FlightAware
04:05AM 49.1668 -4.5389 267° West 456 525 33,500  Descending FlightAware UK
04:06AM 49.1760 -4.5690 267° West 437 503 35,000  Climbing FlightAware
04:06AM 49.1631 -4.6494 267° West 454 522 33,500 -2,580 Descending FlightAware UK
04:06AM 49.1612 -4.7047 267° West 454 522 33,500 3,900 Level FlightAware UK
04:06AM 49.1720 -4.6860 267° West 438 504 35,000  Climbing FlightAware
04:07AM 49.1586 -4.7784 267° West 454 522 33,500 -2,460 Descending FlightAware UK
04:07AM 49.1566 -4.8337 267° West 456 525 33,500 4,260 Level FlightAware UK
04:07AM 49.1680 -4.8160 267° West 438 504 35,000  Climbing FlightAware
04:07AM 49.1534 -4.9258 267° West 456 525 33,500  Descending FlightAware UK
04:08AM 49.1630 -4.9560 267° West 438 504 35,000  Climbing FlightAware
04:08AM 49.1486 -5.0541 267° West 454 522 33,500  Descending FlightAware UK
04:08AM 49.1580 -5.0950 267° West 438 504 35,000  Climbing FlightAware
04:09AM 49.1443 -5.1645 267° West 458 527 33,500 -2,760 Descending FlightAware UK
04:09AM 49.1421 -5.2199 267° West 456 525 33,500 3,600 Level FlightAware UK
04:09AM 49.1530 -5.2150 267° West 439 505 35,000  Climbing FlightAware
04:10AM 49.1378 -5.3305 267° West 454 522 33,500  Descending FlightAware UK
04:10AM 49.1480 -5.3390 267° West 439 505 35,000  Climbing FlightAware
04:10AM 49.1335 -5.4412 267° West 456 525 33,500  Descending FlightAware UK
04:11AM 49.1420 -5.4800 267° West 440 506 35,000  Climbing FlightAware
04:11AM 49.1288 -5.5522 267° West 456 525 33,500 -2,700 Descending FlightAware UK
04:11AM 49.1264 -5.6076 266° West 456 525 33,500 3,720 Level FlightAware UK
04:11AM 49.1370 -5.6040 266° West 441 507 35,000  Climbing FlightAware
04:12AM 49.1224 -5.6999 266° West 456 525 33,500  Descending FlightAware UK
04:12AM 49.1310 -5.7420 266° West 441 507 35,000  Climbing FlightAware
04:12AM 49.1175 -5.8107 266° West 454 522 33,500 -2,760 Descending FlightAware UK
04:13AM 49.1151 -5.8660 266° West 456 525 33,500 3,600 Level FlightAware UK
04:13AM 49.1260 -5.8670 266° West 441 507 35,000  Climbing FlightAware
04:13AM 49.1120 -5.9392 266° West 456 525 33,500 -2,580 Descending FlightAware UK
04:13AM 49.1095 -5.9945 266° West 456 525 33,500 3,900 Level FlightAware UK
04:13AM 49.1200 -5.9920 266° West 441 507 35,000  Climbing FlightAware
04:14AM 49.1060 -6.0682 266° West 456 525 33,500 -2,460 Descending FlightAware UK
04:14AM 49.1034 -6.1235 266° West 456 525 33,500 3,420 Level FlightAware UK
04:14AM 49.1140 -6.1310 266° West 440 506 35,000  Climbing FlightAware
04:14AM 49.0989 -6.2155 266° West 452 520 33,500  Descending FlightAware UK
04:15AM 49.1080 -6.2530 266° West 440 506 35,000  Climbing FlightAware
04:15AM 49.0935 -6.3257 266° West 454 522 33,500 -2,520 Descending FlightAware UK
04:15AM 49.0909 -6.3808 266° West 454 522 33,500 3,300 Level FlightAware UK
04:15AM 49.1010 -6.3930 266° West 440 506 35,000  Climbing FlightAware
04:16AM 49.0875 -6.4543 266° West 452 520 33,500 -2,760 Descending FlightAware UK
04:16AM 49.0847 -6.5094 266° West 452 520 33,500 3,600 Level FlightAware UK
04:16AM 49.0950 -6.5070 266° West 440 506 35,000  Climbing FlightAware
04:16AM 49.0809 -6.5829 266° West 450 518 33,500  Descending FlightAware UK
04:17AM 49.0890 -6.6400 266° West 441 507 35,000  Climbing FlightAware
04:17AM 49.0770 -6.7118 266° West 454 522 33,500  Descending FlightAware UK
04:17AM 49.0890 -6.7620 266° West 434 499 35,000  Climbing FlightAware
04:18AM 49.0814 -6.8206 266° West 452 520 33,500  Descending FlightAware UK
04:18AM 49.0950 -6.8980 266° West 435 501 35,000  Climbing FlightAware
04:19AM 49.0866 -6.9653 266° West 452 520 33,500 -2,520 Descending FlightAware UK
04:19AM 49.0876 -7.0202 272° West 452 520 33,500 3,300 Level FlightAware UK
04:19AM 49.0980 -7.0380 272° West 437 503 35,000  Climbing FlightAware
04:19AM 49.0885 -7.0934 272° West 454 522 33,500 -2,760 Descending FlightAware UK
04:20AM 49.0891 -7.1485 271° West 454 522 33,500 4,500 Level FlightAware UK
04:20AM 49.0990 -7.1420 271° West 438 504 35,000  Climbing FlightAware
04:20AM 49.0899 -7.2036 271° West 456 525 33,500 -2,700 Descending FlightAware UK
04:20AM 49.0906 -7.2587 271° West 452 520 33,500 3,720 Level FlightAware UK
04:20AM 49.1010 -7.2650 271° West 439 505 35,000  Climbing FlightAware
04:21AM 49.0917 -7.3322 271° West 452 520 33,500 -2,520 Descending FlightAware UK
04:21AM 49.0925 -7.3874 271° West 454 522 33,500 4,080 Level FlightAware UK
04:21AM 49.1030 -7.3900 271° West 439 505 35,000  Climbing FlightAware
04:21AM 49.0936 -7.4610 271° West 456 525 33,500 -2,400 Descending FlightAware UK
04:22AM 49.0946 -7.5163 272° West 456 525 33,500 3,600 Level FlightAware UK
04:22AM 49.1050 -7.5180 272° West 441 507 35,000  Climbing FlightAware
04:22AM 49.0957 -7.5900 272° West 458 527 33,500 -2,580 Descending FlightAware UK
04:22AM 49.0965 -7.6454 271° West 460 529 33,500 3,900 Level FlightAware UK
04:22AM 49.1070 -7.6560 271° West 441 507 35,000  Climbing FlightAware
04:23AM 49.0975 -7.7194 271° West 460 529 33,500 -2,460 Descending FlightAware UK
04:23AM 49.0983 -7.7748 271° West 460 529 33,500 4,260 Level FlightAware UK
04:23AM 49.1080 -7.7880 271° West 441 507 35,000  Climbing FlightAware
04:23AM 49.0990 -7.8303 271° West 462 532 33,500 -2,760 Descending FlightAware UK
04:24AM 49.0996 -7.8858 271° West 464 534 33,500 3,000 Level FlightAware UK
04:24AM 49.1100 -7.9240 271° West 441 507 35,000  Climbing FlightAware
04:24AM 49.1007 -7.9782 271° West 466 536 33,500 -2,520 Descending FlightAware UK
04:24AM 49.1015 -8.0337 271° West 464 534 33,500 2,400 Level FlightAware UK
04:25AM 49.1120 -8.0870 271° West 439 505 35,000  Climbing FlightAware
04:25AM 49.1029 -8.1436 271° West 464 534 33,500 -2,580 Descending FlightAware UK
04:25AM 49.1037 -8.1986 271° West 464 534 33,500 3,180 Level FlightAware UK
04:25AM 49.1140 -8.2360 271° West 437 503 35,000  Climbing FlightAware
04:26AM 49.1051 -8.2903 271° West 464 534 33,500 -1,740 Descending FlightAware UK
04:26AM 49.1060 -8.3451 271° West 458 527 33,900 5,400 Climbing FlightAware UK
04:26AM 49.1160 -8.3490 271° West 431 496 35,300 960 Climbing FlightAware
04:26AM 49.1065 -8.3994 271° West 456 525 34,200 -1,440 Descending FlightAware UK
04:27AM 49.1071 -8.4533 271° West 456 525 34,500 3,720 Climbing FlightAware UK
04:27AM 49.1170 -8.4950 271° West 429 494 36,000  Climbing FlightAware
04:27AM 49.1084 -8.5421 271° West 458 527 34,500 -2,460 Descending FlightAware UK
04:27AM 49.1089 -8.5955 271° West 458 527 34,500 4,260 Level FlightAware UK
04:27AM 49.1190 -8.6190 271° West 427 491 36,000  Climbing FlightAware
04:28AM 49.1094 -8.6492 271° West 456 525 34,500 -2,760 Descending FlightAware UK
04:28AM 49.1099 -8.7028 271° West 456 525 34,500 3,000 Level FlightAware UK
04:28AM 49.1190 -8.7430 271° West 425 489 36,000  Climbing FlightAware
04:28AM 49.1105 -8.7562 271° West 456 525 34,500 -5,040 Descending FlightAware UK
04:29AM 49.1107 -8.7917 271° West 456 525 34,500  Level FlightAware UK
04:29AM 49.1112 -8.8449 271° West 456 525 34,500 2,760 Level FlightAware UK
04:29AM 49.1210 -8.8890 271° West 421 484 36,000  Climbing FlightAware
04:29AM 49.1119 -8.9332 271° West 456 525 34,500 -2,280 Descending FlightAware UK
04:30AM 49.1125 -9.0036 271° West 454 522 34,500 3,060 Level FlightAware UK
04:30AM 49.1210 -9.0050 271° West 421 484 36,000 1,980 Climbing FlightAware
04:30AM 49.1210 -9.1070 270° West 421 484 36,000  Level FlightAware
04:31AM 49.1210 -9.2080 270° West 421 484 36,000  Level FlightAware
04:32AM 49.1210 -9.3090 270° West 421 484 36,000  Level FlightAware
04:32AM 49.1210 -9.4100 270° West 421 484 36,000  Level FlightAware
04:33AM 49.1210 -9.5370 270° West 421 484 36,000  Level FlightAware
04:34AM 49.1210 -9.6380 270° West 421 484 36,000  Level FlightAware
04:35AM 49.1210 -9.7390 270° West 421 484 36,000  Level FlightAware
04:35AM 49.1210 -9.8400 270° West 421 484 36,000  Level FlightAware
04:36AM 49.1210 -9.9410 270° West 421 484 36,000  Level FlightAware
04:37AM 49.1210 -10.0680 270° West 421 484 36,000  Level FlightAware
04:37AM 49.1210 -10.1690 270° West 421 484 36,000  Level FlightAware
04:38AM 49.1210 -10.2700 270° West 421 484 36,000  Level FlightAware
04:39AM 49.1210 -10.3710 270° West 421 484 36,000  Level FlightAware
04:41AM 49.1519 -10.6497 280° West  Level FlightAware Approximate
04:42AM 49.1695 -10.8122 279° West  Level FlightAware Approximate
04:43AM 49.1869 -10.9748 279° West  Level FlightAware Approximate
04:44AM 49.2041 -11.1375 279° West  Level FlightAware Approximate
04:45AM 49.2211 -11.3003 279° West  Level FlightAware Approximate
04:46AM 49.2379 -11.4633 279° West  Level FlightAware Approximate
04:47AM 49.2544 -11.6263 279° West  Level FlightAware Approximate
04:48AM 49.2707 -11.7895 279° West  Level FlightAware Approximate
04:49AM 49.2867 -11.9528 279° West  Level FlightAware Approximate
04:50AM 49.3025 -12.1161 279° West  Level FlightAware Approximate
04:51AM 49.3181 -12.2796 278° West  Level FlightAware Approximate
04:52AM 49.3335 -12.4432 278° West  Level FlightAware Approximate
04:53AM 49.3486 -12.6069 278° West  Level FlightAware Approximate
04:54AM 49.3635 -12.7706 278° West  Level FlightAware Approximate
04:55AM 49.3782 -12.9345 278° West  Level FlightAware Approximate
04:56AM 49.3926 -13.0985 278° West  Level FlightAware Approximate
04:57AM 49.4068 -13.2626 278° West  Level FlightAware Approximate
04:58AM 49.4208 -13.4268 278° West  Level FlightAware Approximate
04:59AM 49.4346 -13.5910 277° West  Level FlightAware Approximate
05:00AM 49.4481 -13.7554 277° West  Level FlightAware Approximate
05:01AM 49.4613 -13.9198 277° West  Level FlightAware Approximate
05:02AM 49.4744 -14.0843 277° West  Level FlightAware Approximate
05:03AM 49.4872 -14.2490 277° West  Level FlightAware Approximate
05:04AM 49.4998 -14.4137 277° West  Level FlightAware Approximate
05:05AM 49.5100 -14.5817 275° West  Level FlightAware Approximate
05:06AM 49.5198 -14.7470 275° West  Level FlightAware Approximate
05:07AM 49.5293 -14.9122 275° West  Level FlightAware Approximate
05:08AM 49.5385 -15.0776 275° West  Level FlightAware Approximate
05:09AM 49.5473 -15.2431 275° West  Level FlightAware Approximate
05:10AM 49.5558 -15.4086 275° West  Level FlightAware Approximate
05:11AM 49.5642 -15.5741 274° West  Level FlightAware Approximate
05:12AM 49.5722 -15.7398 274° West  Level FlightAware Approximate
05:13AM 49.5801 -15.9054 274° West  Level FlightAware Approximate
05:14AM 49.5877 -16.0712 274° West  Level FlightAware Approximate
05:15AM 49.5951 -16.2369 274° West  Level FlightAware Approximate
05:16AM 49.6016 -16.4028 273° West  Level FlightAware Approximate
05:17AM 49.6064 -16.5689 273° West  Level FlightAware Approximate
05:18AM 49.6110 -16.7350 273° West  Level FlightAware Approximate
05:19AM 49.6154 -16.9011 272° West  Level FlightAware Approximate
05:20AM 49.6195 -17.0672 272° West  Level FlightAware Approximate
05:21AM 49.6234 -17.2334 272° West  Level FlightAware Approximate
05:22AM 49.6270 -17.3996 272° West  Level FlightAware Approximate
05:23AM 49.6305 -17.5658 272° West  Level FlightAware Approximate
05:24AM 49.6337 -17.7320 272° West  Level FlightAware Approximate
05:25AM 49.6375 -17.8982 272° West  Level FlightAware Approximate
05:26AM 49.6412 -18.0645 272° West  Level FlightAware Approximate
05:27AM 49.6445 -18.2307 272° West  Level FlightAware Approximate
05:28AM 49.6477 -18.3970 272° West  Level FlightAware Approximate
05:29AM 49.6505 -18.5633 272° West  Level FlightAware Approximate
05:30AM 49.6532 -18.7297 271° West  Level FlightAware Approximate
05:31AM 49.6556 -18.8960 271° West  Level FlightAware Approximate
05:32AM 49.6578 -19.0624 271° West  Level FlightAware Approximate
05:33AM 49.6597 -19.2287 271° West  Level FlightAware Approximate
05:34AM 49.6614 -19.3951 271° West  Level FlightAware Approximate
05:34AM 48.0000 -20.0000 257° West 433 498 36,000  Level ETMS Enhanced Traffic Management System
05:35AM 49.6629 -19.5615 271° West  Level FlightAware Approximate
05:36AM 49.6641 -19.7279 271° West  Level FlightAware Approximate
05:37AM 49.6651 -19.8944 271° West  Level FlightAware Approximate
05:38AM 49.6659 -20.0608 270° West  Level FlightAware Approximate
05:39AM 49.6664 -20.2272 270° West  Level FlightAware Approximate
05:40AM 49.6666 -20.3936 270° West  Level FlightAware Approximate
05:41AM 47.7808 -21.3983 256° West 433 498 36,000  Level FlightAware Transoceanic
05:42AM 47.7522 -21.5722 256° West 433 498 36,000  Level FlightAware Transoceanic
05:43AM 47.7233 -21.7460 256° West 433 498 36,000  Level FlightAware Transoceanic
05:44AM 47.6942 -21.9195 256° West 433 498 36,000  Level FlightAware Transoceanic
05:45AM 47.6648 -22.0929 256° West 433 498 36,000  Level FlightAware Transoceanic
05:46AM 47.6352 -22.2660 256° West 433 498 36,000  Level FlightAware Transoceanic
05:47AM 47.6053 -22.4390 256° West 433 498 36,000  Level FlightAware Transoceanic
05:48AM 47.5751 -22.6118 255° West 433 498 36,000  Level FlightAware Transoceanic
05:49AM 47.5447 -22.7843 255° West 433 498 36,000  Level FlightAware Transoceanic
05:50AM 47.5140 -22.9567 255° West 433 498 36,000  Level FlightAware Transoceanic
05:51AM 47.4830 -23.1289 255° West 433 498 36,000  Level FlightAware Transoceanic
05:52AM 47.4519 -23.3008 255° West 433 498 36,000  Level FlightAware Transoceanic
05:53AM 47.4204 -23.4726 255° West 433 498 36,000  Level FlightAware Transoceanic
05:54AM 47.3887 -23.6441 255° West 433 498 36,000  Level FlightAware Transoceanic
05:55AM 47.3567 -23.8155 255° West 433 498 36,000  Level FlightAware Transoceanic
05:56AM 47.3245 -23.9866 254° West 433 498 36,000  Level FlightAware Transoceanic
05:57AM 47.2920 -24.1575 254° West 433 498 36,000  Level FlightAware Transoceanic
05:58AM 47.2593 -24.3283 254° West 433 498 36,000  Level FlightAware Transoceanic
05:59AM 47.2263 -24.4988 254° West 433 498 36,000  Level FlightAware Transoceanic
06:00AM 47.1931 -24.6690 254° West 433 498 36,000  Level FlightAware Transoceanic
06:01AM 47.1596 -24.8391 254° West 433 498 36,000  Level FlightAware Transoceanic
06:02AM 47.1259 -25.0090 254° West 433 498 36,000  Level FlightAware Transoceanic
06:03AM 47.0919 -25.1786 254° West 433 498 36,000  Level FlightAware Transoceanic
06:04AM 47.0576 -25.3480 253° West 433 498 36,000  Level FlightAware Transoceanic
06:05AM 47.0232 -25.5173 253° West 433 498 36,000  Level FlightAware Transoceanic
06:06AM 46.9884 -25.6863 253° West 433 498 36,000  Level FlightAware Transoceanic
06:07AM 46.9534 -25.8550 253° West 433 498 36,000  Level FlightAware Transoceanic
06:08AM 46.9182 -26.0236 253° West 433 498 36,000  Level FlightAware Transoceanic
06:09AM 46.8827 -26.1919 253° West 433 498 36,000  Level FlightAware Transoceanic
06:10AM 46.8470 -26.3600 253° West 433 498 36,000  Level FlightAware Transoceanic
06:11AM 46.8110 -26.5279 253° West 433 498 36,000  Level FlightAware Transoceanic
06:12AM 46.7748 -26.6955 252° West 433 498 36,000  Level FlightAware Transoceanic
06:13AM 46.7383 -26.8630 252° West 433 498 36,000  Level FlightAware Transoceanic
06:14AM 46.7016 -27.0302 252° West 433 498 36,000  Level FlightAware Transoceanic
06:15AM 46.6647 -27.1971 252° West 433 498 36,000  Level FlightAware Transoceanic
06:16AM 46.6275 -27.3639 252° West 433 498 36,000  Level FlightAware Transoceanic
06:17AM 46.5901 -27.5304 252° West 433 498 36,000  Level FlightAware Transoceanic
06:18AM 46.5524 -27.6967 252° West 433 498 36,000  Level FlightAware Transoceanic
06:19AM 46.5145 -27.8627 252° West 433 498 36,000  Level FlightAware Transoceanic
06:20AM 46.4763 -28.0286 251° West 433 498 36,000  Level FlightAware Transoceanic
06:21AM 46.4379 -28.1942 251° West 433 498 36,000  Level FlightAware Transoceanic
06:22AM 46.3993 -28.3595 251° West 433 498 36,000  Level FlightAware Transoceanic
06:23AM 46.3604 -28.5246 251° West 433 498 36,000  Level FlightAware Transoceanic
06:24AM 46.3213 -28.6895 251° West 433 498 36,000  Level FlightAware Transoceanic
06:25AM 46.2820 -28.8542 251° West 433 498 36,000  Level FlightAware Transoceanic
06:26AM 46.2424 -29.0186 251° West 433 498 36,000  Level FlightAware Transoceanic
06:27AM 46.2026 -29.1827 251° West 433 498 36,000  Level FlightAware Transoceanic
06:28AM 46.1625 -29.3467 251° West 433 498 36,000  Level FlightAware Transoceanic
06:29AM 46.1222 -29.5104 250° West 433 498 36,000  Level FlightAware Transoceanic
06:30AM 46.0817 -29.6738 250° West 433 498 36,000  Level FlightAware Transoceanic
06:31AM 46.0410 -29.8370 250° West 433 498 36,000  Level FlightAware Transoceanic
06:32AM 46.0534 -29.9912 277° West  Level Estimated
06:33AM 46.0657 -30.1454 277° West  Level Estimated
06:34AM 46.0777 -30.2997 276° West  Level Estimated
06:35AM 46.0895 -30.4541 276° West  Level Estimated
06:36AM 46.1012 -30.6085 276° West  Level Estimated
06:37AM 46.1126 -30.7630 276° West  Level Estimated
06:38AM 46.1238 -30.9175 276° West  Level Estimated
06:39AM 46.1348 -31.0722 276° West  Level Estimated
06:40AM 46.1455 -31.2269 276° West  Level Estimated
06:41AM 46.1561 -31.3816 276° West  Level Estimated
06:42AM 46.1665 -31.5364 276° West  Level Estimated
06:43AM 46.1767 -31.6912 275° West  Level Estimated
06:44AM 46.1866 -31.8462 275° West  Level Estimated
06:45AM 46.1963 -32.0011 275° West  Level Estimated
06:46AM 46.2059 -32.1562 275° West  Level Estimated
06:47AM 46.2152 -32.3112 275° West  Level Estimated
06:48AM 46.2243 -32.4664 275° West  Level Estimated
06:49AM 46.2332 -32.6215 275° West  Level Estimated
06:50AM 46.2419 -32.7768 275° West  Level Estimated
06:51AM 46.2504 -32.9320 275° West  Level Estimated
06:52AM 46.2586 -33.0874 274° West  Level Estimated
06:53AM 46.2667 -33.2427 274° West  Level Estimated
06:54AM 46.2746 -33.3982 274° West  Level Estimated
06:55AM 46.2822 -33.5536 274° West  Level Estimated
06:56AM 46.2896 -33.7091 274° West  Level Estimated
06:57AM 46.2968 -33.8647 274° West  Level Estimated
06:58AM 46.3038 -34.0202 274° West  Level Estimated
06:59AM 46.3106 -34.1759 274° West  Level Estimated
07:00AM 46.3172 -34.3315 274° West  Level Estimated
07:01AM 46.3236 -34.4872 273° West  Level Estimated
07:02AM 46.3298 -34.6429 273° West  Level Estimated
07:03AM 46.3357 -34.7987 273° West  Level Estimated
07:04AM 46.3415 -34.9545 273° West  Level Estimated
07:05AM 46.3470 -35.1104 273° West  Level Estimated
07:06AM 46.3523 -35.2662 273° West  Level Estimated
07:07AM 46.3574 -35.4221 273° West  Level Estimated
07:08AM 46.3623 -35.5780 273° West  Level Estimated
07:09AM 46.3670 -35.7340 273° West  Level Estimated
07:10AM 46.3714 -35.8899 272° West  Level Estimated
07:11AM 46.3757 -36.0460 272° West  Level Estimated
07:12AM 46.3797 -36.2020 272° West  Level Estimated
07:13AM 46.3836 -36.3580 272° West  Level Estimated
07:14AM 46.3872 -36.5141 272° West  Level Estimated
07:15AM 46.3906 -36.6702 272° West  Level Estimated
07:16AM 46.3938 -36.8263 272° West  Level Estimated
07:17AM 46.3968 -36.9824 272° West  Level Estimated
07:18AM 46.3996 -37.1386 272° West  Level Estimated
07:19AM 46.4021 -37.2947 271° West  Level Estimated
07:20AM 46.4045 -37.4509 271° West  Level Estimated
07:21AM 46.4066 -37.6071 271° West  Level Estimated
07:22AM 46.4085 -37.7633 271° West  Level Estimated
07:23AM 46.4102 -37.9195 271° West  Level Estimated
07:24AM 46.4117 -38.0757 271° West  Level Estimated
07:25AM 46.4130 -38.2319 271° West  Level Estimated
07:26AM 46.4141 -38.3881 271° West  Level Estimated
07:27AM 46.4149 -38.5444 271° West  Level Estimated
07:28AM 46.4156 -38.7006 270° West  Level Estimated
07:29AM 46.4160 -38.8569 270° West  Level Estimated
07:30AM 46.4162 -39.0131 270° West  Level Estimated
07:31AM 46.4162 -39.1694 270° West  Level Estimated
07:32AM 46.4160 -39.3256 270° West  Level Estimated
07:33AM 46.4156 -39.4818 270° West  Level Estimated
07:34AM 46.4150 -39.6381 270° West  Level Estimated
07:35AM 46.4141 -39.7943 270° West  Level Estimated
07:35AM 44.0000 -40.0000 273° West 443 510 36,000  Level New York Oceanic (ODAPS)
07:36AM 46.4131 -39.9506 269° West  Level Estimated
07:37AM 46.4118 -40.1068 269° West  Level Estimated
07:38AM 46.4103 -40.2630 269° West  Level Estimated
07:39AM 46.4086 -40.4192 269° West  Level Estimated
07:40AM 46.4067 -40.5754 269° West  Level Estimated
07:41AM 44.0572 -41.5495 272° West 443 510 36,000  Level FlightAware Transoceanic
07:42AM 44.0623 -41.7218 272° West 443 510 36,000  Level FlightAware Transoceanic
07:43AM 44.0671 -41.8942 272° West 443 510 36,000  Level FlightAware Transoceanic
07:44AM 44.0716 -42.0666 272° West 443 510 36,000  Level FlightAware Transoceanic
07:45AM 44.0759 -42.2390 272° West 443 510 36,000  Level FlightAware Transoceanic
07:45AM 44.0833 -42.4500 272° West 425 489 36,000  Level New York Oceanic (ODAPS)
07:46AM 44.0799 -42.4115 272° West 443 510 36,000  Level FlightAware Transoceanic
07:47AM 44.0837 -42.5839 272° West 443 510 36,000  Level FlightAware Transoceanic
07:48AM 44.0872 -42.7564 272° West 443 510 36,000  Level FlightAware Transoceanic
07:49AM 44.0905 -42.9289 271° West 443 510 36,000  Level FlightAware Transoceanic
07:50AM 44.0934 -43.1015 271° West 443 510 36,000  Level FlightAware Transoceanic
07:51AM 44.0962 -43.2740 271° West 443 510 36,000  Level FlightAware Transoceanic
07:52AM 44.1007 -43.4351 271° West 425 489 36,000  Level FlightAware Transoceanic
07:53AM 44.1028 -43.5993 271° West 425 489 36,000  Level FlightAware Transoceanic
07:54AM 44.1046 -43.7636 271° West 425 489 36,000  Level FlightAware Transoceanic
07:55AM 44.1062 -43.9278 271° West 425 489 36,000  Level FlightAware Transoceanic
07:56AM 44.1076 -44.0921 271° West 425 489 36,000  Level FlightAware Transoceanic
07:57AM 44.1087 -44.2564 270° West 425 489 36,000  Level FlightAware Transoceanic
07:58AM 44.1096 -44.4206 270° West 425 489 36,000  Level FlightAware Transoceanic
07:59AM 44.1102 -44.5849 270° West 425 489 36,000  Level FlightAware Transoceanic
08:00AM 44.1106 -44.7492 270° West 425 489 36,000  Level FlightAware Transoceanic
08:01AM 44.1108 -44.9135 270° West 425 489 36,000  Level FlightAware Transoceanic
08:02AM 44.1108 -45.0778 270° West 425 489 36,000  Level FlightAware Transoceanic
08:03AM 44.1105 -45.2421 270° West 425 489 36,000  Level FlightAware Transoceanic
08:04AM 44.1100 -45.4063 270° West 425 489 36,000  Level FlightAware Transoceanic
08:05AM 44.1092 -45.5706 270° West 425 489 36,000  Level FlightAware Transoceanic
08:06AM 44.1082 -45.7349 269° West 425 489 36,000  Level FlightAware Transoceanic
08:06AM 44.1000 -45.7500 270° West 409 471 36,000  Level New York Oceanic (ODAPS)
08:07AM 44.1070 -45.8992 269° West 425 489 36,000  Level FlightAware Transoceanic
08:08AM 44.1056 -46.0634 269° West 425 489 36,000  Level FlightAware Transoceanic
08:09AM 44.1039 -46.2277 269° West 425 489 36,000  Level FlightAware Transoceanic
08:10AM 44.1019 -46.3919 269° West 425 489 36,000  Level FlightAware Transoceanic
08:11AM 44.0998 -46.5561 269° West 425 489 36,000  Level FlightAware Transoceanic
08:12AM 44.0914 -46.6955 269° West 409 471 36,000  Level FlightAware Transoceanic
08:13AM 44.0892 -46.8531 269° West 409 471 36,000  Level FlightAware Transoceanic
08:14AM 44.0868 -47.0106 269° West 409 471 36,000  Level FlightAware Transoceanic
08:15AM 44.0842 -47.1681 269° West 409 471 36,000  Level FlightAware Transoceanic
08:16AM 44.0813 -47.3256 269° West 409 471 36,000  Level FlightAware Transoceanic
08:17AM 44.0783 -47.4831 268° West 409 471 36,000  Level FlightAware Transoceanic
08:18AM 44.0750 -47.6406 268° West 409 471 36,000  Level FlightAware Transoceanic
08:19AM 44.0715 -47.7981 268° West 409 471 36,000  Level FlightAware Transoceanic
08:20AM 44.0678 -47.9555 268° West 409 471 36,000  Level FlightAware Transoceanic
08:21AM 44.0639 -48.1129 268° West 409 471 36,000  Level FlightAware Transoceanic
08:22AM 44.0598 -48.2703 268° West 409 471 36,000  Level FlightAware Transoceanic
08:23AM 44.0554 -48.4277 268° West 409 471 36,000  Level FlightAware Transoceanic
08:24AM 44.0508 -48.5851 268° West 409 471 36,000  Level FlightAware Transoceanic
08:25AM 44.0461 -48.7424 268° West 409 471 36,000  Level FlightAware Transoceanic
08:26AM 44.0410 -48.8997 267° West 409 471 36,000  Level FlightAware Transoceanic
08:27AM 44.0358 -49.0570 267° West 409 471 36,000 1,980 Level FlightAware Transoceanic
08:27AM 44.0500 -48.8333 267° West 388 447 38,000  Climbing New York Oceanic (ODAPS)
08:28AM 44.0304 -49.2142 267° West 409 471 36,000 -1,020 Descending FlightAware Transoceanic
08:29AM 44.0247 -49.3714 267° West 409 471 36,000  Level FlightAware Transoceanic
08:30AM 44.0189 -49.5286 267° West 409 471 36,000 1,680 Level FlightAware Transoceanic
08:30AM 44.0333 -49.2500 267° West 381 438 38,000  Climbing New York Oceanic (ODAPS)
08:31AM 44.0128 -49.6858 267° West 409 471 36,000 -1,140 Descending FlightAware Transoceanic
08:32AM 44.0065 -49.8429 267° West 409 471 36,000 960 Level FlightAware Transoceanic
08:33AM 44.0069 -49.8543 266° West 388 447 38,000 960 Climbing FlightAware Transoceanic
08:34AM 44.0000 -50.0000 274° West 388 447 38,000  Level FlightAware Transoceanic
08:35AM 44.0075 -50.1405 274° West 388 447 38,000  Level FlightAware Transoceanic
08:36AM 44.0148 -50.2811 274° West 381 438 38,000  Level FlightAware Transoceanic
08:36AM 44.0000 -50.2500 274° West 380 437 38,000  Level Gander Center
08:37AM 44.0219 -50.4217 274° West 381 438 38,000  Level FlightAware Transoceanic
08:37AM 44.0000 -50.3833 270° West 380 437 38,000  Level Gander Center
08:38AM 44.0289 -50.5624 274° West 381 438 38,000  Level FlightAware Transoceanic
08:38AM 44.0167 -50.5167 280° West 380 437 38,000  Level Gander Center
08:39AM 44.0356 -50.7031 274° West 381 438 38,000  Level FlightAware Transoceanic
08:39AM 44.0167 -50.6833 270° West 380 437 38,000  Level Gander Center
08:40AM 44.0423 -50.8438 274° West 381 438 38,000  Level FlightAware Transoceanic
08:40AM 44.0333 -50.8167 280° West 380 437 38,000  Level Gander Center
08:41AM 44.0487 -50.9845 274° West 381 438 38,000  Level FlightAware Transoceanic
08:41AM 44.0333 -50.9500 270° West 380 437 38,000  Level Gander Center
08:42AM 44.0500 -51.1000 279° West 370 426 38,000  Level Gander Center
08:43AM 44.0500 -51.2500 270° West 380 437 38,000  Level Gander Center
08:44AM 44.0500 -51.4000 270° West 380 437 38,000  Level Gander Center
08:45AM 44.0667 -51.5333 274° West 375 432 38,000  Level New York Oceanic (ODAPS)
08:46AM 44.0667 -51.7000 274° West 380 437 38,000  Level Gander Center
08:46AM 44.0833 -51.7667 273° West 371 427 38,000  Level New York Oceanic (ODAPS)
08:47AM 44.0667 -51.8333 273° West 370 426 38,000  Level Gander Center
08:48AM 44.0667 -51.9667 270° West 380 437 38,000  Level Gander Center
08:49AM 44.0833 -52.1167 279° West 370 426 38,000  Level Gander Center
08:50AM 44.0833 -52.2500 270° West 370 426 38,000  Level Gander Center
08:51AM 44.1000 -52.3833 280° West 380 437 38,000  Level Gander Center
08:52AM 44.0833 -52.5500 262° West 360 414 38,000  Level Gander Center
08:53AM 44.1000 -52.6667 281° West 360 414 38,000  Level Gander Center
08:54AM 44.1000 -52.8333 270° West 360 414 38,000 60 Level Gander Center
08:55AM 44.1000 -52.9500 270° West 360 414 38,200 360 Climbing Gander Center
08:56AM 44.1167 -53.0833 280° West 340 391 38,800 480 Climbing Gander Center
08:57AM 44.1167 -53.2500 270° West 390 449 39,200 480 Climbing Gander Center
08:58AM 44.1167 -53.3833 270° West 380 437 39,800 420 Climbing Gander Center
08:59AM 44.1167 -53.5000 270° West 380 437 40,000 60 Climbing Moncton Center
09:00AM 44.1333 -53.6833 277° West 390 449 40,000  Level Gander Center
09:01AM 44.1333 -53.8000 270° West 380 437 40,000  Level Gander Center
09:02AM 44.1333 -53.9833 270° West 380 437 40,000  Level Gander Center
09:03AM 44.1333 -54.1333 270° West 390 449 40,000  Level Gander Center
09:04AM 44.1500 -54.2833 279° West 400 460 40,000  Level Gander Center
09:05AM 44.1500 -54.4333 270° West 380 437 40,000  Level Gander Center
09:06AM 44.1500 -54.6000 270° West 410 472 40,000  Level Gander Center
09:07AM 44.1500 -54.7333 270° West 380 437 40,000  Level Gander Center
09:08AM 44.1500 -54.8667 270° West 400 460 40,000  Level Gander Center
09:09AM 44.1500 -55.0333 270° West 370 426 40,000  Level Gander Center
09:10AM 44.1167 -55.1833 253° West 390 449 40,000  Level Gander Center
09:11AM 44.1167 -55.3167 270° West 380 437 40,000  Level Gander Center
09:12AM 44.1000 -55.4500 260° West 380 437 40,000  Level Moncton Center
09:12AM 44.1000 -55.4500 260° West 390 449 40,000  Level Gander Center
09:13AM 44.1000 -55.5833 270° West 390 449 40,000  Level Moncton Center
09:14AM 44.0833 -55.7333 261° West 390 449 40,000  Level Moncton Center
09:15AM 44.0833 -55.9000 270° West 380 437 40,000  Level Gander Center
09:21AM 44.0400 -56.8150 270° West 379 436 40,000  Level FlightAware
09:21AM 44.0310 -56.9120 263° West 379 436 40,000  Level FlightAware
09:22AM 44.0240 -57.0100 264° West 381 438 40,000  Level FlightAware
09:23AM 44.0230 -57.0910 269° West 383 441 40,000  Level FlightAware
09:23AM 44.0210 -57.1890 268° West 383 441 40,000  Level FlightAware
09:24AM 44.0230 -57.2960 272° West 384 442 40,000  Level FlightAware
09:25AM 44.0210 -57.3970 268° West 384 442 40,000  Level FlightAware
09:25AM 44.0220 -57.5250 271° West 387 445 40,000  Level FlightAware
09:26AM 44.0210 -57.6340 269° West 387 445 40,000  Level FlightAware
09:27AM 44.0200 -57.7170 269° West 388 447 40,000  Level FlightAware
09:28AM 44.0200 -57.8470 270° West 389 448 40,000  Level FlightAware
09:28AM 44.0190 -57.9400 269° West 390 449 40,000  Level FlightAware
09:29AM 44.0180 -58.0420 269° West 390 449 40,000  Level FlightAware
09:30AM 44.0170 -58.1440 269° West 390 449 40,000  Level FlightAware
09:30AM 44.0160 -58.2290 269° West 390 449 40,000  Level FlightAware
09:31AM 44.0140 -58.3730 269° West 391 450 40,000  Level FlightAware
09:32AM 44.0130 -58.4740 269° West 391 450 40,000  Level FlightAware
09:32AM 44.0120 -58.5740 269° West 392 451 40,000  Level FlightAware
09:33AM 44.0100 -58.7240 269° West 392 451 40,000  Level FlightAware
09:34AM 44.0080 -58.8250 268° West 392 451 40,000  Level FlightAware
09:35AM 44.0070 -58.9250 269° West 392 451 40,000  Level FlightAware
09:36AM 44.0050 -59.0360 269° West 393 452 40,000  Level FlightAware
09:36AM 44.0030 -59.1330 268° West 393 452 40,000  Level FlightAware
09:37AM 44.0000 -59.2550 268° West 393 452 40,000  Level FlightAware
09:38AM 43.9980 -59.3620 269° West 393 452 40,000  Level FlightAware
09:38AM 43.9960 -59.4760 269° West 394 453 40,000  Level FlightAware
09:39AM 43.9940 -59.5990 269° West 394 453 40,000  Level FlightAware
09:40AM 43.9920 -59.6900 268° West 393 452 40,000  Level FlightAware
09:41AM 43.9890 -59.8070 268° West 392 451 40,000  Level FlightAware
09:41AM 43.9870 -59.9120 269° West 391 450 40,000  Level FlightAware
09:42AM 43.9840 -60.0360 268° West 390 449 40,000  Level FlightAware
09:43AM 43.9810 -60.1430 268° West 390 449 40,000  Level FlightAware
09:44AM 43.9790 -60.2280 268° West 390 449 40,000  Level FlightAware
09:44AM 43.9770 -60.3130 268° West 390 449 40,000  Level FlightAware
09:45AM 43.9750 -60.3990 268° West 390 449 40,000  Level FlightAware
09:46AM 43.9730 -60.4840 268° West 390 449 40,000  Level FlightAware
09:47AM 43.9700 -60.5900 268° West 390 449 40,000  Level FlightAware
09:47AM 43.9680 -60.6750 268° West 390 449 40,000  Level FlightAware
09:48AM 43.9660 -60.7610 268° West 390 449 40,000  Level FlightAware
09:49AM 43.9630 -60.8460 267° West 390 449 40,000  Level FlightAware
09:49AM 43.9610 -60.9310 268° West 390 449 40,000  Level FlightAware
09:50AM 43.9590 -61.0370 269° West 390 449 40,000  Level FlightAware
09:51AM 43.9560 -61.1230 267° West 390 449 40,000  Level FlightAware
09:51AM 43.9540 -61.2080 268° West 390 449 40,000  Level FlightAware
09:52AM 43.9000 -61.4167 268° West 370 426 40,000  Level Gander Center
09:53AM 43.9000 -61.5667 270° West 370 426 40,000  Level Gander Center
09:54AM 43.9000 -61.7000 270° West 370 426 40,000  Level Gander Center
09:55AM 43.9000 -61.8667 270° West 370 426 40,000  Level Gander Center
09:56AM 43.8833 -61.9667 257° West 370 426 40,000  Level Gander Center
09:57AM 43.8667 -62.1333 262° West 370 426 40,000  Level Gander Center
09:58AM 43.8667 -62.2833 270° West 370 426 40,000  Level Gander Center
09:59AM 43.8500 -62.4167 260° West 370 426 40,000  Level Gander Center
10:00AM 43.8500 -62.5500 270° West 370 426 40,000  Level Moncton Center
10:01AM 43.8333 -62.6833 260° West 370 426 40,000  Level Moncton Center
10:02AM 43.8333 -62.8167 270° West 380 437 40,000  Level Moncton Center
10:03AM 43.8333 -62.9667 270° West 380 437 40,000  Level Moncton Center
10:04AM 43.8333 -63.1500 270° West 380 437 40,000  Level Gander Center
10:05AM 43.8167 -63.2833 260° West 380 437 40,000  Level Gander Center
10:06AM 43.8000 -63.4333 261° West 380 437 40,000  Level Gander Center
10:07AM 43.8000 -63.5667 270° West 380 437 40,000  Level Moncton Center
10:13AM 43.7960 -64.4830 270° West 383 441 40,000  Level FlightAware
10:14AM 43.7890 -64.6020 265° West 380 437 40,000  Level FlightAware
10:14AM 43.7820 -64.7010 264° West 378 435 40,000  Level FlightAware
10:15AM 43.7750 -64.8110 265° West 375 432 40,000  Level FlightAware
10:16AM 43.7690 -64.9050 265° West 373 429 40,000  Level FlightAware
10:16AM 43.7620 -65.0110 265° West 371 427 40,000  Level FlightAware
10:17AM 43.7550 -65.1090 264° West 370 426 40,000  Level FlightAware
10:18AM 43.7480 -65.2020 264° West 369 425 40,000  Level FlightAware
10:18AM 43.7410 -65.3060 265° West 367 422 40,000  Level FlightAware
10:19AM 43.7340 -65.4000 264° West 366 421 40,000  Level FlightAware
10:20AM 43.7260 -65.5060 264° West 365 420 40,000  Level FlightAware
10:21AM 43.7100 -65.7270 264° West 365 420 40,000  Level FlightAware
10:23AM 43.6980 -65.8860 264° West 363 418 40,000  Level FlightAware
10:24AM 43.6850 -66.0500 264° West 362 417 40,000  Level FlightAware
10:25AM 43.6720 -66.2100 264° West 361 415 40,000  Level FlightAware
10:26AM 43.6560 -66.3950 263° West 360 414 40,000  Level FlightAware
10:27AM 43.6470 -66.4980 263° West 359 413 40,000  Level FlightAware
10:28AM 43.6400 -66.5880 264° West 358 412 40,000  Level FlightAware
10:29AM 43.6310 -66.6920 263° West 358 412 40,000  Level FlightAware
10:29AM 43.6230 -66.7800 263° West 357 411 40,000  Level FlightAware
10:30AM 43.6160 -66.8620 263° West 357 411 40,000  Level FlightAware
10:31AM 43.6050 -66.9760 262° West 358 412 40,000  Level FlightAware
10:31AM 43.5890 -67.0600 255° West 356 410 40,000  Level FlightAware
10:32AM 43.5610 -67.1570 248° West 357 411 40,000  Level FlightAware
10:33AM 43.5370 -67.2420 249° West 357 411 40,000  Level FlightAware
10:33AM 43.5130 -67.3260 249° West 358 412 40,000  Level FlightAware
10:34AM 43.4890 -67.4080 248° West 358 412 40,000  Level FlightAware
10:35AM 43.4670 -67.4850 249° West 358 412 40,000  Level FlightAware
10:35AM 43.4360 -67.5910 248° West 358 412 40,000  Level FlightAware
10:36AM 43.4080 -67.6870 248° West 358 412 40,000  Level FlightAware
10:37AM 43.3830 -67.7710 248° West 358 412 40,000  Level FlightAware
10:38AM 43.3550 -67.8660 248° West 357 411 40,000  Level FlightAware
10:38AM 43.3310 -67.9480 248° West 354 407 40,000  Level FlightAware
10:39AM 43.3050 -68.0330 247° West 353 406 40,000 -600 Level FlightAware
10:40AM 43.2800 -68.1180 248° West 354 407 39,200 -1,140 Descending FlightAware
10:40AM 43.2550 -68.2010 248° West 353 406 38,500 -840 Descending FlightAware
10:41AM 43.2260 -68.2970 248° West 353 406 38,000 -360 Descending FlightAware
10:42AM 43.2060 -68.3600 246° West 353 406 38,000  Level FlightAware
10:42AM 43.1780 -68.4560 248° West 333 383 38,000  Level FlightAware
10:43AM 43.1520 -68.5430 248° West 337 388 38,000  Level FlightAware
10:44AM 43.1270 -68.6240 247° West 342 394 38,000  Level FlightAware
10:45AM 43.1030 -68.7030 247° West 344 396 38,000  Level FlightAware
10:45AM 43.0780 -68.7820 247° West 346 398 38,000  Level FlightAware
10:46AM 43.0500 -68.8750 248° West 345 397 38,000  Level FlightAware
10:47AM 43.0220 -68.9660 247° West 346 398 38,000  Level FlightAware
10:47AM 42.9960 -69.0470 246° West 345 397 38,000  Level FlightAware
10:48AM 42.9710 -69.1280 247° West 344 396 38,000  Level FlightAware
10:49AM 42.9430 -69.2180 247° West 342 394 38,000  Level FlightAware
10:49AM 42.9210 -69.2900 247° West 343 395 38,000  Level FlightAware
10:50AM 42.8950 -69.3700 246° West 342 394 38,000  Level FlightAware
10:51AM 42.8700 -69.4510 247° West 338 389 38,000  Level FlightAware
10:52AM 42.8420 -69.5390 247° West 336 387 38,000  Level FlightAware
10:52AM 42.8210 -69.6080 247° West 335 386 38,000  Level FlightAware
10:53AM 42.7900 -69.7050 246° West 334 384 38,000  Level FlightAware
10:54AM 42.7630 -69.7920 247° West 333 383 38,000  Level FlightAware
10:54AM 42.7380 -69.8700 246° West 333 383 38,000  Level FlightAware
10:55AM 42.7130 -69.9460 246° West 334 384 38,000 -360 Level FlightAware
10:56AM 42.6870 -70.0280 247° West 333 383 37,500 -1,500 Descending FlightAware
10:56AM 42.6610 -70.1090 246° West 333 383 35,900 -2,520 Descending FlightAware
10:57AM 42.6330 -70.1950 246° West 336 387 34,000 -2,700 Descending FlightAware
10:58AM 42.6100 -70.2680 247° West 343 395 32,100 -3,120 Descending FlightAware
10:59AM 42.5820 -70.3560 247° West 351 404 29,900 -2,760 Descending FlightAware
10:59AM 42.5520 -70.4470 246° West 356 410 28,200 -1,380 Descending FlightAware
11:00AM 42.5250 -70.5300 246° West 369 425 28,000 -180 Descending FlightAware
11:01AM 42.4940 -70.6270 247° West 376 433 28,000  Level FlightAware
11:01AM 42.4650 -70.7140 246° West 373 429 28,000 -720 Level FlightAware
11:02AM 42.4370 -70.8000 246° West 371 427 27,100 -1,920 Descending FlightAware
11:03AM 42.4070 -70.8920 246° West 371 427 25,300 -2,220 Descending FlightAware
11:03AM 42.3820 -70.9730 247° West 371 427 24,000 -1,320 Descending FlightAware
11:04AM 42.3560 -71.0800 252° West 374 430 23,500 -660 Descending FlightAware
11:05AM 42.3350 -71.1650 252° West 371 427 23,100 -660 Descending FlightAware
11:06AM 42.3110 -71.2690 253° West 368 423 22,600 -660 Descending FlightAware
11:06AM 42.2900 -71.3560 252° West 366 421 22,200 -480 Descending FlightAware
11:07AM 42.2700 -71.4410 252° West 364 419 22,000 -180 Descending FlightAware
11:08AM 42.2460 -71.5390 252° West 366 421 22,000  Level FlightAware
11:08AM 42.2260 -71.6260 253° West 366 421 22,000  Level FlightAware
11:09AM 42.2020 -71.7220 251° West 369 425 22,000  Level FlightAware
11:10AM 42.1830 -71.8010 252° West 370 426 22,000  Level FlightAware
11:11AM 42.1580 -71.9050 252° West 371 427 22,000  Level FlightAware
11:11AM 42.1350 -71.9990 252° West 371 427 22,000  Level FlightAware
11:12AM 42.1150 -72.0830 252° West 371 427 22,000  Level FlightAware
11:13AM 42.0920 -72.1780 252° West 370 426 22,000  Level FlightAware
11:13AM 42.0660 -72.2820 251° West 370 426 22,000 -840 Level FlightAware
11:14AM 42.0360 -72.4040 252° West 359 413 20,600 -1,020 Descending FlightAware
11:15AM 42.0180 -72.4750 251° West 359 413 20,500 -120 Descending FlightAware
11:16AM 42.0000 -72.5460 251° West 359 413 20,500  Level FlightAware
11:16AM 41.9820 -72.6180 251° West 359 413 20,500  Level FlightAware
11:17AM 41.9630 -72.6900 250° West 359 413 20,500  Level FlightAware
11:18AM 41.9400 -72.7800 251° West 359 413 20,500  Level FlightAware
11:18AM 41.9260 -72.8340 251° West 359 413 20,500 -2,040 Level FlightAware
11:20AM 41.8550 -73.1670 254° West 351 404 15,300 -1,800 Descending FlightAware
11:21AM 41.8310 -73.2680 252° West 351 404 15,300  Level FlightAware
11:22AM 41.8040 -73.3830 253° West 350 403 15,300  Level FlightAware
11:23AM 41.7870 -73.4530 252° West 350 403 15,300 -1,920 Level FlightAware
11:23AM 41.7650 -73.5520 253° West 338 389 12,800 -1,800 Descending FlightAware
11:24AM 41.7460 -73.6300 252° West 338 389 12,800 -1,500 Level FlightAware
11:25AM 41.7220 -73.7310 252° West 333 383 10,600 -2,340 Descending FlightAware
11:25AM 41.7090 -73.7870 253° West 333 383 9,900 -1,320 Descending FlightAware
11:26AM 41.6970 -73.8370 252° West 325 374 9,400 -660 Descending FlightAware
11:26AM 41.6840 -73.8940 253° West 322 371 9,300 -120 Descending FlightAware
11:27AM 41.6710 -73.9530 254° West 310 357 9,300  Level FlightAware
11:27AM 41.6600 -74.0000 253° West 310 357 9,300  Level FlightAware
11:28AM 41.6490 -74.0460 252° West 310 357 9,300  Level FlightAware
11:28AM 41.6390 -74.0930 254° West 310 357 9,300 -1,320 Level FlightAware
11:30AM 41.5667 -74.2333 254° West 284 327 7,100 -1,080 Descending New York TRACON
11:31AM 41.5333 -74.3333 246° West 286 329 7,100 -300 Level New York TRACON
11:36AM 41.1950 -74.5030 246° West 263 303 5,400 -360 Descending FlightAware
11:36AM 41.1820 -74.5080 196° South 261 300 5,300 -960 Descending FlightAware
11:37AM 41.1633 -74.5167 199° South 254 292 5,000 -1,380 Descending FlightAware ADS-B
11:37AM 41.1452 -74.5247 198° South 253 291 4,600 -1,140 Descending FlightAware ADS-B
11:37AM 41.1285 -74.5321 198° South 254 292 4,400 -240 Descending FlightAware ADS-B
11:38AM 41.0850 -74.5390 187° South 253 291 4,400  Level FlightAware
11:38AM 41.0540 -74.5400 181° South 253 291 4,400  Level FlightAware
11:39AM 41.0200 -74.5410 181° South 251 289 4,400  Level FlightAware
11:39AM 40.9870 -74.5410 180° South 252 290 4,400  Level FlightAware
11:39AM 40.9715 -74.5417 182° South 4,400  Level FlightAware ADS-B
11:39AM 40.9680 -74.5419 182° South 250 288 4,400  Level FlightAware ADS-B
11:40AM 40.9350 -74.5430 181° South 250 288 4,400  Level FlightAware
11:40AM 40.9070 -74.5440 182° South 253 291 4,400  Level FlightAware
11:41AM 40.8720 -74.5440 180° South 255 293 4,400  Level FlightAware
11:41AM 40.8420 -74.5450 181° South 254 292 4,400  Level FlightAware
11:42AM 40.8035 -74.5453 180° South 255 293 4,400  Level FlightAware ADS-B
11:43AM 40.7420 -74.5470 181° South 254 292 4,400  Level FlightAware
11:43AM 40.7272 -74.5477 182° South 254 292 4,400  Level FlightAware ADS-B
11:44AM 40.6770 -74.5500 182° South 259 298 4,400  Level FlightAware
11:44AM 40.6678 -74.5500 180° South 254 292 4,400  Level FlightAware ADS-B
11:44AM 40.6422 -74.5517 183° South 256 295 4,400  Level FlightAware ADS-B
11:44AM 40.6243 -74.5531 183° South 255 293 4,400 -420 Level FlightAware ADS-B
11:45AM 40.6044 -74.5546 183° South 256 295 4,200 -600 Descending FlightAware ADS-B
11:45AM 40.5862 -74.5560 183° South 252 290 4,100 -600 Descending FlightAware ADS-B
11:45AM 40.5686 -74.5574 183° South 246 283 3,900 -600 Descending FlightAware ADS-B
11:45AM 40.5510 -74.5587 183° South 240 276 3,800 -420 Descending FlightAware ADS-B
11:46AM 40.5337 -74.5601 184° South 229 264 3,700 -480 Descending FlightAware ADS-B
11:46AM 40.5234 -74.5603 181° South 219 252 3,600 -720 Descending FlightAware ADS-B
11:46AM 40.5169 -74.5584 167° South 211 243 3,500 -540 Descending FlightAware ADS-B
11:46AM 40.5124 -74.5562 160° South 202 232 3,500 -900 Level FlightAware ADS-B
11:46AM 40.5001 -74.5483 154° Southeast 185 213 3,200 -780 Descending FlightAware ADS-B
11:47AM 40.4870 -74.5394 153° Southeast 174 200 3,100 -600 Descending FlightAware ADS-B
11:47AM 40.4767 -74.5323 152° Southeast 166 191 2,900 -540 Descending FlightAware ADS-B
11:47AM 40.4632 -74.5229 152° Southeast 158 182 2,800 -480 Descending FlightAware ADS-B
11:47AM 40.4601 -74.5198 143° Southeast 156 180 2,700 -1,140 Descending FlightAware ADS-B
11:47AM 40.4573 -74.5158 133° Southeast 154 177 2,600 -600 Descending FlightAware ADS-B
11:47AM 40.4551 -74.5117 125° Southeast 153 176 2,600 -480 Level FlightAware ADS-B
11:48AM 40.4480 -74.4968 122° Southeast 151 174 2,400 -360 Descending FlightAware ADS-B
11:48AM 40.4431 -74.4849 118° Southeast 154 177 2,400  Level FlightAware ADS-B
11:48AM 40.4372 -74.4716 120° Southeast 156 180 2,400  Level FlightAware ADS-B
11:48AM 40.4348 -74.4647 115° Southeast 156 180 2,400  Level FlightAware ADS-B
11:49AM 40.4350 -74.4518 89° East 153 176 2,400  Level FlightAware ADS-B
11:49AM 40.4537 -74.4194 53° Northeast 159 183 2,400  Level FlightAware ADS-B
11:50AM 40.4652 -74.4013 50° Northeast 157 181 2,400  Level FlightAware ADS-B
11:50AM 40.4800 -74.3760 52° Northeast 154 177 2,400  Level FlightAware
11:51AM 40.4853 -74.3677 50° Northeast 157 181 2,400  Level FlightAware ADS-B
11:51AM 40.4995 -74.3436 52° Northeast 165 190 2,400  Level FlightAware ADS-B
11:52AM 40.5164 -74.3157 51° Northeast 165 190 2,400  Level FlightAware ADS-B
11:52AM 40.5349 -74.3007 32° Northeast 165 190 2,400  Level FlightAware ADS-B
11:52AM 40.5476 -74.2925 26° Northeast 183 211 2,400  Level FlightAware ADS-B
11:53AM 40.5651 -74.2815 26° Northeast 184 212 2,400 -120 Level FlightAware ADS-B
11:53AM 40.5940 -74.2630 26° Northeast 165 190 2,300 -120 Descending FlightAware
11:54AM 40.6044 -74.2563 26° Northeast 166 191 2,300 -600 Level FlightAware ADS-B
11:54AM 40.6291 -74.2401 26° Northeast 158 182 1,800 -960 Descending FlightAware ADS-B
11:55AM 40.6475 -74.2284 26° Northeast 174 200 1,300 -1,020 Descending FlightAware ADS-B
11:55AM 40.6730 -74.2120 26° Northeast 152 175 700 -1,020 Descending FlightAware
11:55AM 40.6767 -74.2099 23° Northeast 172 198 600 -960 Descending FlightAware ADS-B
11:56AM 40.6826 -74.2058 28° Northeast 147 169 500 -600 Descending FlightAware ADS-B
11:56AM 40.6889 -74.2012 29° Northeast 137 158 400 -780 Descending FlightAware ADS-B
11:56AM 40.6999 -74.1943 25° Northeast 133 153 100 -900 Descending FlightAware ADS-B